createdAt,value
2018-01-29T00:00:43.852Z,1024.33
2018-01-29T00:01:43.788Z,1024.35
2018-01-29T00:02:43.723Z,1024.29
2018-01-29T00:03:43.661Z,1024.29
2018-01-29T00:04:43.594Z,1024.28
2018-01-29T00:05:43.531Z,1024.30
2018-01-29T00:06:43.470Z,1024.28
2018-01-29T00:07:43.406Z,1024.24
2018-01-29T00:08:43.337Z,1024.25
2018-01-29T00:09:43.277Z,1024.27
2018-01-29T00:10:43.210Z,1024.24
2018-01-29T00:11:43.146Z,1024.23
2018-01-29T00:12:43.082Z,1024.25
2018-01-29T00:13:43.016Z,1024.26
2018-01-29T00:14:42.953Z,1024.29
2018-01-29T00:15:42.889Z,1024.28
2018-01-29T00:16:42.825Z,1024.31
2018-01-29T00:17:42.760Z,1024.31
2018-01-29T00:18:42.696Z,1024.28
2018-01-29T00:19:42.634Z,1024.30
2018-01-29T00:20:42.566Z,1024.26
2018-01-29T00:21:42.503Z,1024.27
2018-01-29T00:22:42.439Z,1024.30
2018-01-29T00:23:42.374Z,1024.27
2018-01-29T00:24:42.309Z,1024.27
2018-01-29T00:25:42.245Z,1024.26
2018-01-29T00:26:42.182Z,1024.28
2018-01-29T00:27:42.117Z,1024.22
2018-01-29T00:28:42.054Z,1024.25
2018-01-29T00:29:41.989Z,1024.25
2018-01-29T00:30:41.925Z,1024.27
2018-01-29T00:31:41.861Z,1024.30
2018-01-29T00:32:41.796Z,1024.23
2018-01-29T00:33:41.732Z,1024.27
2018-01-29T00:34:41.668Z,1024.24
2018-01-29T00:35:41.603Z,1024.25
2018-01-29T00:36:41.545Z,1024.25
2018-01-29T00:37:41.474Z,1024.22
2018-01-29T00:38:41.412Z,1024.22
2018-01-29T00:39:41.348Z,1024.24
2018-01-29T00:40:41.281Z,1024.13
2018-01-29T00:41:41.217Z,1024.21
2018-01-29T00:42:41.153Z,1024.19
2018-01-29T00:43:41.096Z,1024.21
2018-01-29T00:44:41.025Z,1024.21
2018-01-29T00:45:40.960Z,1024.20
2018-01-29T00:46:40.896Z,1024.19
2018-01-29T00:47:40.833Z,1024.18
2018-01-29T00:48:40.767Z,1024.12
2018-01-29T00:49:40.703Z,1024.22
2018-01-29T00:50:40.641Z,1024.21
2018-01-29T00:51:40.577Z,1024.18
2018-01-29T00:52:40.511Z,1024.15
2018-01-29T00:53:40.446Z,1024.17
2018-01-29T00:54:40.382Z,1024.17
2018-01-29T00:55:40.318Z,1024.17
2018-01-29T00:56:40.253Z,1024.14
2018-01-29T00:57:40.189Z,1024.14
2018-01-29T00:58:40.125Z,1024.12
2018-01-29T00:59:40.061Z,1024.14
2018-01-29T01:00:39.995Z,1024.12
2018-01-29T01:01:39.932Z,1024.11
2018-01-29T01:02:39.869Z,1024.10
2018-01-29T01:03:39.807Z,1024.12
2018-01-29T01:04:39.739Z,1024.13
2018-01-29T01:05:39.675Z,1024.15
2018-01-29T01:06:39.611Z,1024.18
2018-01-29T01:07:39.550Z,1024.17
2018-01-29T01:08:39.482Z,1024.16
2018-01-29T01:09:39.418Z,1024.16
2018-01-29T01:10:39.356Z,1024.16
2018-01-29T01:11:39.291Z,1024.19
2018-01-29T01:12:39.225Z,1024.17
2018-01-29T01:13:39.162Z,1024.15
2018-01-29T01:14:39.104Z,1024.16
2018-01-29T01:15:39.033Z,1024.17
2018-01-29T01:16:38.967Z,1024.15
2018-01-29T01:17:38.904Z,1024.13
2018-01-29T01:18:38.840Z,1024.09
2018-01-29T01:19:38.777Z,1024.09
2018-01-29T01:20:38.712Z,1024.09
2018-01-29T01:21:38.646Z,1024.08
2018-01-29T01:22:38.585Z,1024.12
2018-01-29T01:23:38.519Z,1024.11
2018-01-29T01:24:38.454Z,1024.14
2018-01-29T01:25:38.390Z,1024.15
2018-01-29T01:26:38.328Z,1024.21
2018-01-29T01:27:38.269Z,1024.13
2018-01-29T01:28:38.197Z,1024.16
2018-01-29T01:29:38.134Z,1024.14
2018-01-29T01:30:38.069Z,1024.14
2018-01-29T01:31:38.006Z,1024.07
2018-01-29T01:32:37.940Z,1024.10
2018-01-29T01:33:37.876Z,1024.16
2018-01-29T01:34:37.811Z,1024.15
2018-01-29T01:35:37.748Z,1024.17
2018-01-29T01:36:37.683Z,1024.13
2018-01-29T01:37:37.624Z,1024.17
2018-01-29T01:38:37.555Z,1024.14
2018-01-29T01:39:37.492Z,1024.15
2018-01-29T01:40:37.426Z,1024.10
2018-01-29T01:41:37.364Z,1024.12
2018-01-29T01:42:37.298Z,1024.14
2018-01-29T01:43:37.235Z,1024.13
2018-01-29T01:44:37.170Z,1024.13
2018-01-29T01:45:37.105Z,1024.10
2018-01-29T01:46:37.040Z,1024.13
2018-01-29T01:47:36.976Z,1024.09
2018-01-29T01:48:36.912Z,1024.06
2018-01-29T01:49:36.849Z,1024.08
2018-01-29T01:50:36.785Z,1024.03
2018-01-29T01:51:36.720Z,1023.98
2018-01-29T01:52:36.655Z,1024.04
2018-01-29T01:53:36.591Z,1024.07
2018-01-29T01:54:36.527Z,1023.99
2018-01-29T01:55:36.464Z,1024.01
2018-01-29T01:56:36.411Z,1023.98
2018-01-29T01:57:36.334Z,1023.94
2018-01-29T01:58:36.271Z,1024.01
2018-01-29T01:59:36.205Z,1024.01
2018-01-29T02:00:36.140Z,1023.98
2018-01-29T02:01:36.077Z,1023.96
2018-01-29T02:02:36.018Z,1023.95
2018-01-29T02:03:35.948Z,1023.89
2018-01-29T02:04:35.883Z,1023.95
2018-01-29T02:05:35.819Z,1023.89
2018-01-29T02:06:35.755Z,1023.83
2018-01-29T02:07:35.691Z,1023.82
2018-01-29T02:08:35.625Z,1023.79
2018-01-29T02:09:35.560Z,1023.80
2018-01-29T02:10:35.498Z,1023.72
2018-01-29T02:11:35.433Z,1023.71
2018-01-29T02:12:35.367Z,1023.71
2018-01-29T02:13:35.305Z,1023.69
2018-01-29T02:14:35.240Z,1023.66
2018-01-29T02:15:35.176Z,1023.65
2018-01-29T02:16:35.110Z,1023.67
2018-01-29T02:17:35.047Z,1023.67
2018-01-29T02:18:34.986Z,1023.67
2018-01-29T02:19:34.918Z,1023.73
2018-01-29T02:20:34.852Z,1023.66
2018-01-29T02:21:34.788Z,1023.70
2018-01-29T02:22:34.725Z,1023.71
2018-01-29T02:23:34.659Z,1023.70
2018-01-29T02:24:34.595Z,1023.70
2018-01-29T02:25:34.531Z,1023.67
2018-01-29T02:26:34.468Z,1023.65
2018-01-29T02:27:34.402Z,1023.68
2018-01-29T02:28:34.337Z,1023.68
2018-01-29T02:29:34.273Z,1023.66
2018-01-29T02:30:34.208Z,1023.69
2018-01-29T02:31:34.143Z,1023.74
2018-01-29T02:32:34.080Z,1023.74
2018-01-29T02:33:34.016Z,1023.71
2018-01-29T02:34:33.952Z,1023.70
2018-01-29T02:35:33.889Z,1023.67
2018-01-29T02:36:33.822Z,1023.65
2018-01-29T02:37:33.758Z,1023.63
2018-01-29T02:38:33.694Z,1023.60
2018-01-29T02:39:33.630Z,1023.60
2018-01-29T02:40:33.615Z,1023.59
2018-01-29T02:41:33.504Z,1023.58
2018-01-29T02:42:33.436Z,1023.56
2018-01-29T02:43:33.373Z,1023.55
2018-01-29T02:44:33.307Z,1023.56
2018-01-29T02:45:33.244Z,1023.53
2018-01-29T02:46:33.179Z,1023.54
2018-01-29T02:47:33.117Z,1023.51
2018-01-29T02:48:33.050Z,1023.51
2018-01-29T02:49:32.986Z,1023.50
2018-01-29T02:50:32.923Z,1023.53
2018-01-29T02:51:32.857Z,1023.59
2018-01-29T02:52:32.793Z,1023.53
2018-01-29T02:53:32.729Z,1023.53
2018-01-29T02:54:32.664Z,1023.56
2018-01-29T02:55:32.599Z,1023.55
2018-01-29T02:56:32.535Z,1023.53
2018-01-29T02:57:32.472Z,1023.60
2018-01-29T02:58:32.406Z,1023.63
2018-01-29T02:59:32.342Z,1023.57
2018-01-29T03:00:32.277Z,1023.56
2018-01-29T03:01:32.212Z,1023.59
2018-01-29T03:02:32.149Z,1023.55
2018-01-29T03:03:32.083Z,1023.54
2018-01-29T03:04:32.018Z,1023.54
2018-01-29T03:05:31.954Z,1023.48
2018-01-29T03:06:31.890Z,1023.52
2018-01-29T03:07:31.827Z,1023.52
2018-01-29T03:08:31.765Z,1023.56
2018-01-29T03:09:31.695Z,1023.52
2018-01-29T03:10:31.632Z,1023.49
2018-01-29T03:11:31.568Z,1023.55
2018-01-29T03:12:31.503Z,1023.49
2018-01-29T03:13:31.438Z,1023.48
2018-01-29T03:14:31.374Z,1023.49
2018-01-29T03:15:31.310Z,1023.51
2018-01-29T03:16:31.244Z,1023.46
2018-01-29T03:17:31.180Z,1023.48
2018-01-29T03:18:31.116Z,1023.40
2018-01-29T03:19:31.051Z,1023.45
2018-01-29T03:20:30.986Z,1023.42
2018-01-29T03:21:30.922Z,1023.44
2018-01-29T03:22:30.858Z,1023.45
2018-01-29T03:23:30.793Z,1023.43
2018-01-29T03:24:30.728Z,1023.44
2018-01-29T03:25:30.663Z,1023.46
2018-01-29T03:26:30.599Z,1023.41
2018-01-29T03:27:30.534Z,1023.41
2018-01-29T03:28:30.469Z,1023.43
2018-01-29T03:29:30.405Z,1023.39
2018-01-29T03:30:30.341Z,1023.40
2018-01-29T03:31:30.277Z,1023.39
2018-01-29T03:32:30.211Z,1023.43
2018-01-29T03:33:30.146Z,1023.36
2018-01-29T03:34:30.082Z,1023.34
2018-01-29T03:35:30.026Z,1023.37
2018-01-29T03:36:29.952Z,1023.38
2018-01-29T03:37:29.889Z,1023.33
2018-01-29T03:38:29.827Z,1023.29
2018-01-29T03:39:29.760Z,1023.27
2018-01-29T03:40:29.701Z,1023.31
2018-01-29T03:41:29.628Z,1023.22
2018-01-29T03:42:29.565Z,1023.26
2018-01-29T03:43:29.509Z,1023.21
2018-01-29T03:44:29.436Z,1023.25
2018-01-29T03:45:29.371Z,1023.22
2018-01-29T03:46:29.307Z,1023.23
2018-01-29T03:47:29.243Z,1023.20
2018-01-29T03:48:29.176Z,1023.17
2018-01-29T03:49:29.112Z,1023.22
2018-01-29T03:50:29.048Z,1023.22
2018-01-29T03:51:28.984Z,1023.24
2018-01-29T03:52:28.918Z,1023.21
2018-01-29T03:53:28.854Z,1023.20
2018-01-29T03:54:28.790Z,1023.27
2018-01-29T03:55:28.724Z,1023.26
2018-01-29T03:56:28.669Z,1023.24
2018-01-29T03:57:28.596Z,1023.24
2018-01-29T03:58:28.531Z,1023.20
2018-01-29T03:59:28.468Z,1023.19
2018-01-29T04:00:28.401Z,1023.20
2018-01-29T04:01:28.338Z,1023.20
2018-01-29T04:02:28.273Z,1023.25
2018-01-29T04:03:28.209Z,1023.16
2018-01-29T04:04:28.143Z,1023.20
2018-01-29T04:05:28.079Z,1023.16
2018-01-29T04:06:28.015Z,1023.12
2018-01-29T04:07:27.952Z,1023.13
2018-01-29T04:08:27.884Z,1023.12
2018-01-29T04:09:27.820Z,1023.09
2018-01-29T04:10:27.755Z,1023.04
2018-01-29T04:11:27.690Z,1023.01
2018-01-29T04:12:27.626Z,1022.99
2018-01-29T04:13:27.561Z,1022.98
2018-01-29T04:14:27.496Z,1022.96
2018-01-29T04:15:27.432Z,1022.92
2018-01-29T04:16:27.367Z,1022.97
2018-01-29T04:17:27.302Z,1022.98
2018-01-29T04:18:27.238Z,1022.94
2018-01-29T04:19:27.174Z,1022.95
2018-01-29T04:20:27.109Z,1022.97
2018-01-29T04:21:27.043Z,1022.90
2018-01-29T04:22:26.980Z,1022.90
2018-01-29T04:23:26.915Z,1022.84
2018-01-29T04:24:26.853Z,1022.86
2018-01-29T04:25:26.786Z,1022.89
2018-01-29T04:26:26.721Z,1022.89
2018-01-29T04:27:26.656Z,1022.85
2018-01-29T04:28:26.591Z,1022.81
2018-01-29T04:29:26.528Z,1022.81
2018-01-29T04:30:26.469Z,1022.73
2018-01-29T04:31:26.397Z,1022.72
2018-01-29T04:32:26.336Z,1022.68
2018-01-29T04:33:26.269Z,1022.60
2018-01-29T04:34:26.203Z,1022.52
2018-01-29T04:35:26.140Z,1022.53
2018-01-29T04:36:26.073Z,1022.44
2018-01-29T04:37:26.011Z,1022.39
2018-01-29T04:38:25.950Z,1022.34
2018-01-29T04:39:25.881Z,1022.31
2018-01-29T04:40:25.814Z,1022.27
2018-01-29T04:41:25.750Z,1022.26
2018-01-29T04:42:25.688Z,1022.23
2018-01-29T04:43:25.621Z,1022.26
2018-01-29T04:44:25.560Z,1022.24
2018-01-29T04:45:25.492Z,1022.29
2018-01-29T04:46:25.428Z,1022.29
2018-01-29T04:47:25.365Z,1022.33
2018-01-29T04:48:25.300Z,1022.33
2018-01-29T04:49:25.233Z,1022.37
2018-01-29T04:50:25.169Z,1022.35
2018-01-29T04:51:25.103Z,1022.35
2018-01-29T04:52:25.042Z,1022.37
2018-01-29T04:53:24.974Z,1022.40
2018-01-29T04:54:24.911Z,1022.40
2018-01-29T04:55:24.844Z,1022.35
2018-01-29T04:56:24.782Z,1022.37
2018-01-29T04:57:24.715Z,1022.37
2018-01-29T04:58:24.654Z,1022.36
2018-01-29T04:59:24.586Z,1022.42
2018-01-29T05:00:24.524Z,1022.39
2018-01-29T05:01:24.456Z,1022.37
2018-01-29T05:02:24.393Z,1022.35
2018-01-29T05:03:24.330Z,1022.41
2018-01-29T05:04:24.262Z,1022.37
2018-01-29T05:05:24.197Z,1022.40
2018-01-29T05:06:24.134Z,1022.42
2018-01-29T05:07:24.070Z,1022.51
2018-01-29T05:08:24.003Z,1022.47
2018-01-29T05:09:23.939Z,1022.52
2018-01-29T05:10:23.874Z,1022.50
2018-01-29T05:11:23.867Z,1022.55
2018-01-29T05:12:23.745Z,1022.56
2018-01-29T05:13:23.683Z,1022.59
2018-01-29T05:14:23.615Z,1022.58
2018-01-29T05:15:23.551Z,1022.61
2018-01-29T05:16:23.485Z,1022.63
2018-01-29T05:17:23.422Z,1022.61
2018-01-29T05:18:23.357Z,1022.68
2018-01-29T05:19:23.291Z,1022.64
2018-01-29T05:20:23.226Z,1022.63
2018-01-29T05:21:23.162Z,1022.64
2018-01-29T05:22:23.097Z,1022.64
2018-01-29T05:23:23.033Z,1022.68
2018-01-29T05:24:22.968Z,1022.63
2018-01-29T05:25:22.905Z,1022.61
2018-01-29T05:26:22.844Z,1022.65
2018-01-29T05:27:22.774Z,1022.62
2018-01-29T05:28:22.709Z,1022.59
2018-01-29T05:29:22.644Z,1022.60
2018-01-29T05:30:22.582Z,1022.61
2018-01-29T05:31:22.517Z,1022.66
2018-01-29T05:32:22.450Z,1022.63
2018-01-29T05:33:22.385Z,1022.67
2018-01-29T05:34:22.320Z,1022.64
2018-01-29T05:35:22.257Z,1022.68
2018-01-29T05:36:22.195Z,1022.62
2018-01-29T05:37:22.129Z,1022.62
2018-01-29T05:38:22.062Z,1022.61
2018-01-29T05:39:21.999Z,1022.60
2018-01-29T05:40:21.932Z,1022.57
2018-01-29T05:41:21.868Z,1022.61
2018-01-29T05:42:21.805Z,1022.65
2018-01-29T05:43:21.738Z,1022.65
2018-01-29T05:44:21.674Z,1022.67
2018-01-29T05:45:21.610Z,1022.70
2018-01-29T05:46:21.548Z,1022.69
2018-01-29T05:47:21.482Z,1022.65
2018-01-29T05:48:21.416Z,1022.61
2018-01-29T05:49:21.352Z,1022.58
2018-01-29T05:50:21.287Z,1022.58
2018-01-29T05:51:21.222Z,1022.59
2018-01-29T05:52:21.157Z,1022.54
2018-01-29T05:53:21.093Z,1022.49
2018-01-29T05:54:21.028Z,1022.51
2018-01-29T05:55:20.964Z,1022.48
2018-01-29T05:56:20.898Z,1022.57
2018-01-29T05:57:20.834Z,1022.49
2018-01-29T05:58:20.770Z,1022.51
2018-01-29T05:59:20.705Z,1022.47
2018-01-29T06:00:20.638Z,1022.53
2018-01-29T06:01:20.575Z,1022.51
2018-01-29T06:02:20.512Z,1022.50
2018-01-29T06:03:20.446Z,1022.49
2018-01-29T06:04:20.382Z,1022.47
2018-01-29T06:05:20.316Z,1022.39
2018-01-29T06:06:20.253Z,1022.44
2018-01-29T06:07:20.187Z,1022.41
2018-01-29T06:08:20.122Z,1022.39
2018-01-29T06:09:20.058Z,1022.40
2018-01-29T06:10:19.992Z,1022.42
2018-01-29T06:11:19.929Z,1022.37
2018-01-29T06:12:19.862Z,1022.35
2018-01-29T06:13:19.800Z,1022.34
2018-01-29T06:14:19.734Z,1022.37
2018-01-29T06:15:19.670Z,1022.35
2018-01-29T06:16:19.604Z,1022.34
2018-01-29T06:17:19.540Z,1022.43
2018-01-29T06:18:19.492Z,1022.38
2018-01-29T06:19:19.411Z,1022.40
2018-01-29T06:20:19.346Z,1022.37
2018-01-29T06:21:19.281Z,1022.36
2018-01-29T06:22:19.216Z,1022.37
2018-01-29T06:23:19.153Z,1022.40
2018-01-29T06:24:19.090Z,1022.36
2018-01-29T06:25:19.022Z,1022.40
2018-01-29T06:26:18.958Z,1022.40
2018-01-29T06:27:18.894Z,1022.37
2018-01-29T06:28:18.828Z,1022.42
2018-01-29T06:29:18.764Z,1022.37
2018-01-29T06:30:18.700Z,1022.36
2018-01-29T06:31:18.634Z,1022.39
2018-01-29T06:32:18.573Z,1022.39
2018-01-29T06:33:18.506Z,1022.37
2018-01-29T06:34:18.444Z,1022.41
2018-01-29T06:35:18.376Z,1022.40
2018-01-29T06:36:18.328Z,1022.40
2018-01-29T06:37:18.247Z,1022.40
2018-01-29T06:38:18.183Z,1022.40
2018-01-29T06:39:18.119Z,1022.40
2018-01-29T06:40:18.052Z,1022.35
2018-01-29T06:41:17.988Z,1022.40
2018-01-29T06:42:17.923Z,1022.38
2018-01-29T06:43:17.885Z,1022.32
2018-01-29T06:44:17.794Z,1022.36
2018-01-29T06:45:17.730Z,1022.35
2018-01-29T06:46:17.665Z,1022.36
2018-01-29T06:47:17.600Z,1022.33
2018-01-29T06:48:17.537Z,1022.32
2018-01-29T06:49:17.470Z,1022.36
2018-01-29T06:50:17.413Z,1022.35
2018-01-29T06:51:17.341Z,1022.38
2018-01-29T06:52:17.276Z,1022.40
2018-01-29T06:53:17.210Z,1022.38
2018-01-29T06:54:17.149Z,1022.39
2018-01-29T06:55:17.091Z,1022.36
2018-01-29T06:56:17.016Z,1022.36
2018-01-29T06:57:16.954Z,1022.42
2018-01-29T06:58:16.920Z,1022.37
2018-01-29T06:59:16.825Z,1022.35
2018-01-29T07:00:16.756Z,1022.36
2018-01-29T07:01:16.694Z,1022.32
2018-01-29T07:02:16.629Z,1022.32
2018-01-29T07:03:16.564Z,1022.29
2018-01-29T07:04:16.499Z,1022.25
2018-01-29T07:05:16.435Z,1022.22
2018-01-29T07:06:16.369Z,1022.25
2018-01-29T07:07:16.312Z,1022.23
2018-01-29T07:08:16.240Z,1022.22
2018-01-29T07:09:16.175Z,1022.24
2018-01-29T07:10:16.112Z,1022.25
2018-01-29T07:11:16.048Z,1022.27
2018-01-29T07:12:15.983Z,1022.25
2018-01-29T07:13:15.916Z,1022.29
2018-01-29T07:14:15.852Z,1022.25
2018-01-29T07:15:15.788Z,1022.21
2018-01-29T07:16:15.723Z,1022.29
2018-01-29T07:17:15.661Z,1022.25
2018-01-29T07:18:15.593Z,1022.35
2018-01-29T07:19:15.531Z,1022.28
2018-01-29T07:20:15.464Z,1022.32
2018-01-29T07:21:15.402Z,1022.33
2018-01-29T07:22:15.350Z,1022.29
2018-01-29T07:23:15.271Z,1022.33
2018-01-29T07:24:15.203Z,1022.33
2018-01-29T07:25:15.140Z,1022.31
2018-01-29T07:26:15.075Z,1022.30
2018-01-29T07:27:15.011Z,1022.36
2018-01-29T07:28:14.945Z,1022.36
2018-01-29T07:29:14.881Z,1022.41
2018-01-29T07:30:14.816Z,1022.44
2018-01-29T07:31:14.752Z,1022.45
2018-01-29T07:32:14.688Z,1022.40
2018-01-29T07:33:14.622Z,1022.36
2018-01-29T07:34:14.558Z,1022.43
2018-01-29T07:35:14.493Z,1022.38
2018-01-29T07:36:14.429Z,1022.42
2018-01-29T07:37:14.363Z,1022.35
2018-01-29T07:38:14.301Z,1022.37
2018-01-29T07:39:14.235Z,1022.34
2018-01-29T07:40:14.175Z,1022.28
2018-01-29T07:41:14.105Z,1022.31
2018-01-29T07:42:14.103Z,1022.33
2018-01-29T07:43:13.996Z,1022.34
2018-01-29T07:44:13.912Z,1022.33
2018-01-29T07:45:13.848Z,1022.36
2018-01-29T07:46:13.784Z,1022.29
2018-01-29T07:47:13.718Z,1022.29
2018-01-29T07:48:13.652Z,1022.29
2018-01-29T07:49:13.589Z,1022.30
2018-01-29T07:50:13.524Z,1022.27
2018-01-29T07:51:13.460Z,1022.26
2018-01-29T07:52:13.396Z,1022.31
2018-01-29T07:53:13.330Z,1022.31
2018-01-29T07:54:13.266Z,1022.30
2018-01-29T07:55:13.202Z,1022.30
2018-01-29T07:56:13.136Z,1022.32
2018-01-29T07:57:13.072Z,1022.27
2018-01-29T07:58:13.008Z,1022.26
2018-01-29T07:59:12.943Z,1022.28
2018-01-29T08:00:12.880Z,1022.28
2018-01-29T08:01:12.814Z,1022.25
2018-01-29T08:02:12.749Z,1022.25
2018-01-29T08:03:12.685Z,1022.26
2018-01-29T08:04:12.619Z,1022.25
2018-01-29T08:05:12.555Z,1022.24
2018-01-29T08:06:12.490Z,1022.24
2018-01-29T08:07:12.425Z,1022.22
2018-01-29T08:08:12.364Z,1022.20
2018-01-29T08:09:12.296Z,1022.19
2018-01-29T08:10:12.234Z,1022.18
2018-01-29T08:11:12.168Z,1022.17
2018-01-29T08:12:12.103Z,1022.17
2018-01-29T08:13:12.038Z,1022.18
2018-01-29T08:14:11.974Z,1022.15
2018-01-29T08:15:11.910Z,1022.19
2018-01-29T08:16:11.845Z,1022.21
2018-01-29T08:17:11.781Z,1022.22
2018-01-29T08:18:11.717Z,1022.24
2018-01-29T08:19:11.652Z,1022.18
2018-01-29T08:20:11.587Z,1022.11
2018-01-29T08:21:11.522Z,1022.15
2018-01-29T08:22:11.459Z,1022.14
2018-01-29T08:23:11.395Z,1022.15
2018-01-29T08:24:11.329Z,1022.09
2018-01-29T08:25:11.265Z,1022.07
2018-01-29T08:26:11.201Z,1022.05
2018-01-29T08:27:11.138Z,1022.04
2018-01-29T08:28:11.073Z,1022.02
2018-01-29T08:29:11.008Z,1022.01
2018-01-29T08:30:10.944Z,1021.94
2018-01-29T08:31:10.880Z,1021.95
2018-01-29T08:32:10.815Z,1021.92
2018-01-29T08:33:10.784Z,1021.92
2018-01-29T08:34:10.687Z,1021.94
2018-01-29T08:35:10.624Z,1021.88
2018-01-29T08:36:10.619Z,1021.79
2018-01-29T08:37:10.495Z,1021.80
2018-01-29T08:38:10.431Z,1021.79
2018-01-29T08:39:10.367Z,1021.80
2018-01-29T08:40:10.302Z,1021.76
2018-01-29T08:41:10.239Z,1021.76
2018-01-29T08:42:10.174Z,1021.79
2018-01-29T08:43:10.111Z,1021.76
2018-01-29T08:44:10.046Z,1021.75
2018-01-29T08:45:09.983Z,1021.78
2018-01-29T08:46:09.919Z,1021.79
2018-01-29T08:47:09.856Z,1021.76
2018-01-29T08:48:09.791Z,1021.77
2018-01-29T08:49:09.727Z,1021.71
2018-01-29T08:50:09.663Z,1021.78
2018-01-29T08:51:09.601Z,1021.83
2018-01-29T08:52:09.535Z,1021.78
2018-01-29T08:53:09.471Z,1021.80
2018-01-29T08:54:09.408Z,1021.76
2018-01-29T08:55:09.345Z,1021.72
2018-01-29T08:56:09.279Z,1021.78
2018-01-29T08:57:09.216Z,1021.79
2018-01-29T08:58:09.153Z,1021.76
2018-01-29T08:59:09.089Z,1021.73
2018-01-29T09:00:09.024Z,1021.72
2018-01-29T09:01:08.961Z,1021.77
2018-01-29T09:02:08.897Z,1021.75
2018-01-29T09:03:08.834Z,1021.74
2018-01-29T09:04:08.770Z,1021.72
2018-01-29T09:05:08.706Z,1021.67
2018-01-29T09:06:08.643Z,1021.68
2018-01-29T09:07:08.580Z,1021.70
2018-01-29T09:08:08.517Z,1021.74
2018-01-29T09:09:08.451Z,1021.70
2018-01-29T09:10:08.387Z,1021.71
2018-01-29T09:11:08.325Z,1021.72
2018-01-29T09:12:08.264Z,1021.68
2018-01-29T09:13:08.196Z,1021.68
2018-01-29T09:14:08.133Z,1021.67
2018-01-29T09:15:08.070Z,1021.65
2018-01-29T09:16:08.010Z,1021.60
2018-01-29T09:17:07.960Z,1021.61
2018-01-29T09:18:07.879Z,1021.53
2018-01-29T09:19:07.817Z,1021.60
2018-01-29T09:20:07.751Z,1021.56
2018-01-29T09:21:07.687Z,1021.58
2018-01-29T09:22:07.624Z,1021.54
2018-01-29T09:23:07.561Z,1021.55
2018-01-29T09:24:07.497Z,1021.55
2018-01-29T09:25:07.435Z,1021.52
2018-01-29T09:26:07.370Z,1021.57
2018-01-29T09:27:07.307Z,1021.52
2018-01-29T09:28:07.243Z,1021.52
2018-01-29T09:29:07.180Z,1021.54
2018-01-29T09:30:07.116Z,1021.56
2018-01-29T09:31:07.054Z,1021.61
2018-01-29T09:32:06.989Z,1021.56
2018-01-29T09:33:06.927Z,1021.63
2018-01-29T09:34:06.863Z,1021.63
2018-01-29T09:35:06.799Z,1021.63
2018-01-29T09:36:06.736Z,1021.59
2018-01-29T09:37:06.672Z,1021.60
2018-01-29T09:38:06.612Z,1021.64
2018-01-29T09:39:06.546Z,1021.63
2018-01-29T09:40:06.482Z,1021.61
2018-01-29T09:41:06.425Z,1021.64
2018-01-29T09:42:06.355Z,1021.59
2018-01-29T09:43:06.294Z,1021.57
2018-01-29T09:44:06.228Z,1021.65
2018-01-29T09:45:06.167Z,1021.55
2018-01-29T09:46:06.104Z,1021.54
2018-01-29T09:47:06.039Z,1021.62
2018-01-29T09:48:05.976Z,1021.58
2018-01-29T09:49:05.914Z,1021.51
2018-01-29T09:50:05.852Z,1021.55
2018-01-29T09:51:05.787Z,1021.61
2018-01-29T09:52:05.723Z,1021.59
2018-01-29T09:53:05.700Z,1021.59
2018-01-29T09:54:05.597Z,1021.57
2018-01-29T09:55:05.535Z,1021.60
2018-01-29T09:56:05.471Z,1021.56
2018-01-29T09:57:05.410Z,1021.58
2018-01-29T09:58:05.346Z,1021.53
2018-01-29T09:59:05.282Z,1021.56
2018-01-29T10:00:05.219Z,1021.55
2018-01-29T10:01:05.158Z,1021.56
2018-01-29T10:02:05.094Z,1021.57
2018-01-29T10:03:05.031Z,1021.46
2018-01-29T10:04:04.967Z,1021.49
2018-01-29T10:05:04.905Z,1021.50
2018-01-29T10:06:04.839Z,1021.49
2018-01-29T10:07:04.778Z,1021.44
2018-01-29T10:08:04.715Z,1021.44
2018-01-29T10:09:04.652Z,1021.47
2018-01-29T10:10:04.591Z,1021.42
2018-01-29T10:11:04.526Z,1021.48
2018-01-29T10:12:04.463Z,1021.50
2018-01-29T10:13:04.401Z,1021.49
2018-01-29T10:14:04.339Z,1021.44
2018-01-29T10:15:04.276Z,1021.38
2018-01-29T10:16:04.212Z,1021.36
2018-01-29T10:17:04.150Z,1021.38
2018-01-29T10:18:04.093Z,1021.32
2018-01-29T10:19:04.024Z,1021.33
2018-01-29T10:20:03.961Z,1021.28
2018-01-29T10:21:03.898Z,1021.27
2018-01-29T10:22:03.836Z,1021.29
2018-01-29T10:23:03.776Z,1021.25
2018-01-29T10:24:03.711Z,1021.15
2018-01-29T10:25:03.647Z,1021.24
2018-01-29T10:26:03.585Z,1021.22
2018-01-29T10:27:03.524Z,1021.24
2018-01-29T10:28:03.460Z,1021.26
2018-01-29T10:29:03.396Z,1021.19
2018-01-29T10:30:03.334Z,1021.24
2018-01-29T10:31:03.272Z,1021.28
2018-01-29T10:32:03.208Z,1021.23
2018-01-29T10:33:03.146Z,1021.22
2018-01-29T10:34:03.084Z,1021.17
2018-01-29T10:35:03.021Z,1021.14
2018-01-29T10:36:02.957Z,1021.14
2018-01-29T10:37:02.905Z,1021.10
2018-01-29T10:38:02.831Z,1021.10
2018-01-29T10:39:02.769Z,1021.13
2018-01-29T10:40:02.707Z,1021.11
2018-01-29T10:41:02.644Z,1021.11
2018-01-29T10:42:02.584Z,1021.15
2018-01-29T10:43:02.596Z,1021.11
2018-01-29T10:44:02.454Z,1021.10
2018-01-29T10:45:02.393Z,1021.04
2018-01-29T10:46:02.330Z,1021.05
2018-01-29T10:47:02.268Z,1021.07
2018-01-29T10:48:02.204Z,1021.04
2018-01-29T10:49:02.141Z,1021.01
2018-01-29T10:50:02.080Z,1021.01
2018-01-29T10:51:02.016Z,1020.97
2018-01-29T10:52:01.953Z,1020.97
2018-01-29T10:53:01.891Z,1020.89
2018-01-29T10:54:01.827Z,1020.94
2018-01-29T10:55:01.764Z,1020.95
2018-01-29T10:56:01.701Z,1020.94
2018-01-29T10:57:01.638Z,1020.89
2018-01-29T10:58:01.576Z,1020.89
2018-01-29T10:59:01.519Z,1020.90
2018-01-29T11:00:01.449Z,1020.91
2018-01-29T11:01:01.388Z,1020.93
2018-01-29T11:02:01.324Z,1020.89
2018-01-29T11:03:01.262Z,1020.86
2018-01-29T11:04:01.199Z,1020.82
2018-01-29T11:05:01.136Z,1020.87
2018-01-29T11:06:01.074Z,1020.79
2018-01-29T11:07:01.011Z,1020.81
2018-01-29T11:08:00.947Z,1020.83
2018-01-29T11:09:00.885Z,1020.79
2018-01-29T11:10:00.823Z,1020.74
2018-01-29T11:11:00.762Z,1020.76
2018-01-29T11:12:00.698Z,1020.82
2018-01-29T11:13:00.636Z,1020.75
2018-01-29T11:14:00.573Z,1020.68
2018-01-29T11:15:00.510Z,1020.66
2018-01-29T11:16:00.447Z,1020.70
2018-01-29T11:17:00.386Z,1020.76
2018-01-29T11:18:00.324Z,1020.85
2018-01-29T11:19:00.261Z,1020.84
2018-01-29T11:20:00.198Z,1020.71
2018-01-29T11:21:00.136Z,1020.64
2018-01-29T11:22:00.074Z,1020.66
2018-01-29T11:23:00.013Z,1020.67
2018-01-29T11:23:59.949Z,1020.72
2018-01-29T11:24:59.889Z,1020.75
2018-01-29T11:25:59.826Z,1020.75
2018-01-29T11:26:59.767Z,1020.65
2018-01-29T11:27:59.706Z,1020.82
2018-01-29T11:28:59.639Z,1020.68
2018-01-29T11:29:59.577Z,1020.62
2018-01-29T11:30:59.515Z,1020.55
2018-01-29T11:31:59.452Z,1020.56
2018-01-29T11:32:59.391Z,1020.58
2018-01-29T11:33:59.333Z,1020.55
2018-01-29T11:34:59.269Z,1020.56
2018-01-29T11:35:59.214Z,1020.58
2018-01-29T11:36:59.143Z,1020.51
2018-01-29T11:37:59.083Z,1020.53
2018-01-29T11:38:59.025Z,1020.44
2018-01-29T11:39:58.957Z,1020.42
2018-01-29T11:40:58.895Z,1020.47
2018-01-29T11:41:58.832Z,1020.48
2018-01-29T11:42:58.771Z,1020.58
2018-01-29T11:43:58.709Z,1020.51
2018-01-29T11:44:58.662Z,1020.43
2018-01-29T11:45:58.585Z,1020.42
2018-01-29T11:46:58.522Z,1020.40
2018-01-29T11:47:58.459Z,1020.41
2018-01-29T11:48:58.402Z,1020.46
2018-01-29T11:49:58.335Z,1020.43
2018-01-29T11:50:58.273Z,1020.33
2018-01-29T11:51:58.216Z,1020.34
2018-01-29T11:52:58.149Z,1020.30
2018-01-29T11:53:58.086Z,1020.30
2018-01-29T11:54:58.024Z,1020.29
2018-01-29T11:55:57.966Z,1020.28
2018-01-29T11:56:57.902Z,1020.24
2018-01-29T11:57:57.838Z,1020.27
2018-01-29T11:58:57.777Z,1020.28
2018-01-29T11:59:57.728Z,1020.30
2018-01-29T12:00:57.652Z,1020.30
2018-01-29T12:01:57.589Z,1020.30
2018-01-29T12:02:57.526Z,1020.17
2018-01-29T12:03:57.463Z,1020.16
2018-01-29T12:04:57.402Z,1020.20